sensor_id;sensor_type;location;lat;lon;timestamp;temperature;humidity
1524;DHT22;755;53.658;10.118;2022-12-18T00:05:15;-4.50;99.90
1524;DHT22;755;53.658;10.118;2022-12-18T00:15:17;-4.50;99.90
1524;DHT22;755;53.658;10.118;2022-12-18T00:25:21;-4.70;99.90
1524;DHT22;755;53.658;10.118;2022-12-18T00:35:23;-4.80;99.90
1524;DHT22;755;53.658;10.118;2022-12-18T00:45:29;-4.90;99.90
1524;DHT22;755;53.658;10.118;2022-12-18T00:55:32;-5.10;99.90
1524;DHT22;755;53.658;10.118;2022-12-18T01:05:38;-5.20;99.90
1524;DHT22;755;53.658;10.118;2022-12-18T01:15:47;-5.40;99.90
1524;DHT22;755;53.658;10.118;2022-12-18T01:25:51;-5.40;99.90
1524;DHT22;755;53.658;10.118;2022-12-18T01:35:53;-5.50;99.90
1524;DHT22;755;53.658;10.118;2022-12-18T01:45:59;-5.40;99.90
1524;DHT22;755;53.658;10.118;2022-12-18T01:56:02;-5.40;99.90
1524;DHT22;755;53.658;10.118;2022-12-18T02:06:12;-5.40;99.90
1524;DHT22;755;53.658;10.118;2022-12-18T02:16:20;-5.60;99.90
1524;DHT22;755;53.658;10.118;2022-12-18T02:26:30;-5.60;99.90
1524;DHT22;755;53.658;10.118;2022-12-18T02:36:38;-5.70;99.90
1524;DHT22;755;53.658;10.118;2022-12-18T02:46:46;-5.60;99.90
1524;DHT22;755;53.658;10.118;2022-12-18T02:56:51;-5.90;99.90
1524;DHT22;755;53.658;10.118;2022-12-18T03:07:05;-6.00;99.90
1524;DHT22;755;53.658;10.118;2022-12-18T03:17:13;-5.90;99.90
1524;DHT22;755;53.658;10.118;2022-12-18T03:27:20;-6.00;99.90
1524;DHT22;755;53.658;10.118;2022-12-18T03:37:24;-5.90;99.90
1524;DHT22;755;53.658;10.118;2022-12-18T03:47:30;-5.90;99.90
1524;DHT22;755;53.658;10.118;2022-12-18T03:57:36;-5.90;99.90
1524;DHT22;755;53.658;10.118;2022-12-18T04:07:41;-6.00;99.90
1524;DHT22;755;53.658;10.118;2022-12-18T04:17:48;-6.00;99.90
1524;DHT22;755;53.658;10.118;2022-12-18T04:27:52;-6.00;99.90
1524;DHT22;755;53.658;10.118;2022-12-18T04:37:54;-6.10;99.90
1524;DHT22;755;53.658;10.118;2022-12-18T04:47:58;-6.20;99.90
1524;DHT22;755;53.658;10.118;2022-12-18T04:58:00;-6.40;99.90
1524;DHT22;755;53.658;10.118;2022-12-18T05:08:05;-6.40;99.90
1524;DHT22;755;53.658;10.118;2022-12-18T05:18:08;-6.40;99.90
1524;DHT22;755;53.658;10.118;2022-12-18T05:28:14;-6.40;99.90
1524;DHT22;755;53.658;10.118;2022-12-18T05:38:19;-6.60;99.90
1524;DHT22;755;53.658;10.118;2022-12-18T05:48:23;-6.70;99.90
1524;DHT22;755;53.658;10.118;2022-12-18T05:58:25;-6.70;99.90
1524;DHT22;755;53.658;10.118;2022-12-18T06:08:30;-6.80;99.90
1524;DHT22;755;53.658;10.118;2022-12-18T06:18:32;-6.60;99.90
1524;DHT22;755;53.658;10.118;2022-12-18T06:28:36;-6.60;99.90
1524;DHT22;755;53.658;10.118;2022-12-18T06:38:42;-6.80;99.90
1524;DHT22;755;53.658;10.118;2022-12-18T06:48:48;-6.70;99.90
1524;DHT22;755;53.658;10.118;2022-12-18T06:58:52;-6.60;99.90
1524;DHT22;755;53.658;10.118;2022-12-18T07:08:55;-6.60;99.90
1524;DHT22;755;53.658;10.118;2022-12-18T07:18:58;-6.60;99.90
1524;DHT22;755;53.658;10.118;2022-12-18T07:29:04;-6.50;99.90
1524;DHT22;755;53.658;10.118;2022-12-18T07:39:07;-6.60;99.90
1524;DHT22;755;53.658;10.118;2022-12-18T07:49:13;-6.50;99.90
1524;DHT22;755;53.658;10.118;2022-12-18T07:59:20;-6.60;99.90
1524;DHT22;755;53.658;10.118;2022-12-18T08:09:26;-6.50;99.90
1524;DHT22;755;53.658;10.118;2022-12-18T08:19:32;-6.40;99.90
1524;DHT22;755;53.658;10.118;2022-12-18T08:29:36;-6.30;99.90
1524;DHT22;755;53.658;10.118;2022-12-18T08:39:39;-6.20;99.90
1524;DHT22;755;53.658;10.118;2022-12-18T08:49:43;-6.10;99.90
1524;DHT22;755;53.658;10.118;2022-12-18T08:59:45;-5.90;99.90
1524;DHT22;755;53.658;10.118;2022-12-18T09:09:49;-5.80;99.90
1524;DHT22;755;53.658;10.118;2022-12-18T09:19:51;-5.70;99.90
1524;DHT22;755;53.658;10.118;2022-12-18T09:29:55;-5.50;99.90
1524;DHT22;755;53.658;10.118;2022-12-18T09:39:57;-5.20;99.90
1524;DHT22;755;53.658;10.118;2022-12-18T09:50:03;-5.00;99.90
1524;DHT22;755;53.658;10.118;2022-12-18T10:00:15;-4.80;99.90
1524;DHT22;755;53.658;10.118;2022-12-18T10:10:36;-4.60;99.90
1524;DHT22;755;53.658;10.118;2022-12-18T10:20:44;-4.30;37.20
1524;DHT22;755;53.658;10.118;2022-12-18T10:30:48;-4.00;1.00
1524;DHT22;755;53.658;10.118;2022-12-18T10:40:53;-3.70;1.00
1524;DHT22;755;53.658;10.118;2022-12-18T10:50:57;-3.70;1.00
1524;DHT22;755;53.658;10.118;2022-12-18T11:01:04;-3.40;1.00
1524;DHT22;755;53.658;10.118;2022-12-18T11:11:23;-3.10;1.00
1524;DHT22;755;53.658;10.118;2022-12-18T11:21:39;-2.80;99.90
1524;DHT22;755;53.658;10.118;2022-12-18T11:31:47;-2.60;1.00
1524;DHT22;755;53.658;10.118;2022-12-18T11:41:53;-2.60;1.00
1524;DHT22;755;53.658;10.118;2022-12-18T11:52:22;-2.50;1.00
1524;DHT22;755;53.658;10.118;2022-12-18T12:02:37;-2.40;1.00
1524;DHT22;755;53.658;10.118;2022-12-18T12:12:57;-2.30;1.00
1524;DHT22;755;53.658;10.118;2022-12-18T12:23:12;-2.40;1.00
1524;DHT22;755;53.658;10.118;2022-12-18T12:33:28;-2.30;1.00
1524;DHT22;755;53.658;10.118;2022-12-18T12:43:40;-2.20;99.90
1524;DHT22;755;53.658;10.118;2022-12-18T12:53:44;-2.20;99.90
1524;DHT22;755;53.658;10.118;2022-12-18T13:03:58;-2.20;1.00
1524;DHT22;755;53.658;10.118;2022-12-18T13:14:20;-2.10;1.00
1524;DHT22;755;53.658;10.118;2022-12-18T13:24:25;-2.10;99.90
1524;DHT22;755;53.658;10.118;2022-12-18T13:34:30;-1.90;99.90
1524;DHT22;755;53.658;10.118;2022-12-18T13:44:36;-1.90;92.10
1524;DHT22;755;53.658;10.118;2022-12-18T13:54:42;-2.10;1.00
1524;DHT22;755;53.658;10.118;2022-12-18T14:04:48;-2.50;19.30
1524;DHT22;755;53.658;10.118;2022-12-18T14:14:52;-2.70;1.00
1524;DHT22;755;53.658;10.118;2022-12-18T14:25:15;-2.80;99.90
1524;DHT22;755;53.658;10.118;2022-12-18T14:35:20;-2.90;1.00
1524;DHT22;755;53.658;10.118;2022-12-18T14:45:36;-3.10;1.00
1524;DHT22;755;53.658;10.118;2022-12-18T14:55:45;-3.20;1.00
1524;DHT22;755;53.658;10.118;2022-12-18T15:05:49;-3.40;1.00
1524;DHT22;755;53.658;10.118;2022-12-18T15:15:53;-3.50;1.00
1524;DHT22;755;53.658;10.118;2022-12-18T15:25:59;-3.60;1.00
1524;DHT22;755;53.658;10.118;2022-12-18T15:36:07;-3.80;99.90
1524;DHT22;755;53.658;10.118;2022-12-18T15:46:12;-3.90;77.30
1524;DHT22;755;53.658;10.118;2022-12-18T15:56:17;-3.90;99.90
1524;DHT22;755;53.658;10.118;2022-12-18T16:06:36;-3.90;99.90
1524;DHT22;755;53.658;10.118;2022-12-18T16:16:40;-3.90;99.90
1524;DHT22;755;53.658;10.118;2022-12-18T16:26:43;-3.90;99.90
1524;DHT22;755;53.658;10.118;2022-12-18T16:36:49;-3.80;99.90
1524;DHT22;755;53.658;10.118;2022-12-18T16:46:55;-3.80;99.90
1524;DHT22;755;53.658;10.118;2022-12-18T16:57:06;-3.70;99.90
1524;DHT22;755;53.658;10.118;2022-12-18T17:07:12;-3.80;99.90
1524;DHT22;755;53.658;10.118;2022-12-18T17:17:16;-3.80;99.90
1524;DHT22;755;53.658;10.118;2022-12-18T17:27:18;-3.80;99.90
1524;DHT22;755;53.658;10.118;2022-12-18T17:37:22;-3.80;99.90
1524;DHT22;755;53.658;10.118;2022-12-18T17:47:27;-3.70;99.90
1524;DHT22;755;53.658;10.118;2022-12-18T17:57:35;-3.70;99.90
1524;DHT22;755;53.658;10.118;2022-12-18T18:07:37;-3.60;99.90
1524;DHT22;755;53.658;10.118;2022-12-18T18:17:41;-3.60;99.90
1524;DHT22;755;53.658;10.118;2022-12-18T18:27:49;-3.60;99.90
1524;DHT22;755;53.658;10.118;2022-12-18T18:37:53;-3.50;99.90
1524;DHT22;755;53.658;10.118;2022-12-18T18:47:55;-3.50;99.90
1524;DHT22;755;53.658;10.118;2022-12-18T18:58:05;-3.50;99.90
1524;DHT22;755;53.658;10.118;2022-12-18T19:08:08;-3.40;99.90
1524;DHT22;755;53.658;10.118;2022-12-18T19:18:11;-3.40;99.90
1524;DHT22;755;53.658;10.118;2022-12-18T19:28:16;-3.40;99.90
1524;DHT22;755;53.658;10.118;2022-12-18T19:38:23;-3.40;99.90
1524;DHT22;755;53.658;10.118;2022-12-18T19:48:29;-3.30;99.90
1524;DHT22;755;53.658;10.118;2022-12-18T19:58:33;-3.30;98.30
1524;DHT22;755;53.658;10.118;2022-12-18T20:08:35;-3.40;83.80
1524;DHT22;755;53.658;10.118;2022-12-18T20:18:39;-3.30;63.60
1524;DHT22;755;53.658;10.118;2022-12-18T20:28:41;-3.30;91.80
1524;DHT22;755;53.658;10.118;2022-12-18T20:38:45;-3.30;14.60
1524;DHT22;755;53.658;10.118;2022-12-18T20:48:50;-3.30;1.00
1524;DHT22;755;53.658;10.118;2022-12-18T20:58:55;-3.20;17.90
1524;DHT22;755;53.658;10.118;2022-12-18T21:08:58;-3.20;13.80
1524;DHT22;755;53.658;10.118;2022-12-18T21:19:01;-3.20;9.30
1524;DHT22;755;53.658;10.118;2022-12-18T21:29:05;-3.10;1.00
1524;DHT22;755;53.658;10.118;2022-12-18T21:39:09;-3.10;1.00
1524;DHT22;755;53.658;10.118;2022-12-18T21:49:12;-3.00;1.00
1524;DHT22;755;53.658;10.118;2022-12-18T21:59:18;-2.80;1.00
1524;DHT22;755;53.658;10.118;2022-12-18T22:09:23;-2.60;45.90
1524;DHT22;755;53.658;10.118;2022-12-18T22:19:27;-2.60;99.90
1524;DHT22;755;53.658;10.118;2022-12-18T22:29:29;-2.60;74.00
1524;DHT22;755;53.658;10.118;2022-12-18T22:39:50;-2.50;46.60
1524;DHT22;755;53.658;10.118;2022-12-18T22:50:11;-2.50;99.90
1524;DHT22;755;53.658;10.118;2022-12-18T23:01:13;-2.50;99.90
1524;DHT22;755;53.658;10.118;2022-12-18T23:11:27;-2.50;99.90
1524;DHT22;755;53.658;10.118;2022-12-18T23:21:31;-2.50;99.90
1524;DHT22;755;53.658;10.118;2022-12-18T23:31:34;-2.50;99.90
1524;DHT22;755;53.658;10.118;2022-12-18T23:41:39;-2.50;99.90
1524;DHT22;755;53.658;10.118;2022-12-18T23:51:41;-2.50;99.90
